Time;durP1;ratioP1;P1;durP2;ratioP2;P2;SDS_P1;SDS_P2;PMS_P1;PMS_P2;Temp;Humidity;BMP_temperature;BMP_pressure;BME280_temperature;BME280_humidity;BME280_pressure;Samples;Min_cycle;Max_cycle;Signal;HPM_P1;HPM_P2
2021/12/06 00:01:13;;;;;;;8.97;6.60;;;4.00;1.00;;;;;;5071446;28;20266;-57
2021/12/06 00:03:43;;;;;;;9.73;6.50;;;4.00;1.00;;;;;;5071741;28;20787;-58
2021/12/06 00:06:12;;;;;;;11.53;6.73;;;4.10;1.00;;;;;;5072194;28;20259;-59
2021/12/06 00:08:39;;;;;;;10.87;6.33;;;4.10;1.00;;;;;;5071855;28;20727;-59
2021/12/06 00:11:08;;;;;;;7.83;5.93;;;4.10;1.00;;;;;;5071719;28;20259;-59
2021/12/06 00:13:39;;;;;;;8.30;6.40;;;4.10;1.00;;;;;;5072048;28;20261;-60
2021/12/06 00:16:10;;;;;;;7.80;5.40;;;4.10;1.00;;;;;;5072018;28;20217;-59
2021/12/06 00:18:37;;;;;;;8.23;5.73;;;4.10;1.00;;;;;;5072132;28;20216;-59
2021/12/06 00:21:05;;;;;;;13.67;7.03;;;3.80;1.00;;;;;;5071765;28;20213;-58
2021/12/06 00:23:32;;;;;;;9.33;7.37;;;3.60;1.00;;;;;;5071806;28;20478;-57
2021/12/06 00:25:59;;;;;;;9.40;6.00;;;3.60;1.00;;;;;;5071759;28;20501;-56
2021/12/06 00:28:26;;;;;;;8.87;6.53;;;3.60;1.00;;;;;;5071778;28;20447;-58
2021/12/06 00:30:56;;;;;;;11.47;7.10;;;3.50;1.00;;;;;;5071511;28;20474;-57
2021/12/06 00:33:23;;;;;;;10.40;6.97;;;3.40;1.00;;;;;;5071525;28;20475;-57
2021/12/06 00:35:50;;;;;;;8.93;7.27;;;3.40;1.00;;;;;;5072178;28;20452;-56
2021/12/06 00:38:16;;;;;;;8.60;7.13;;;3.40;1.00;;;;;;5071551;28;20489;-59
2021/12/06 00:40:46;;;;;;;10.20;7.57;;;3.30;1.00;;;;;;5071592;28;20447;-57
2021/12/06 00:43:14;;;;;;;9.43;7.13;;;3.30;1.00;;;;;;5071182;28;20471;-59
2021/12/06 00:45:41;;;;;;;13.33;8.03;;;3.20;1.00;;;;;;5071488;28;20473;-58
2021/12/06 00:48:10;;;;;;;11.47;7.30;;;3.00;1.00;;;;;;5073316;28;20810;-57
2021/12/06 00:50:39;;;;;;;13.40;7.83;;;3.00;1.00;;;;;;5075703;28;20447;-58
2021/12/06 00:53:06;;;;;;;9.03;6.70;;;3.00;1.00;;;;;;5075157;28;20471;-56
2021/12/06 00:55:33;;;;;;;12.07;7.47;;;3.10;1.00;;;;;;5075513;28;20443;-59
2021/12/06 00:58:00;;;;;;;10.63;7.13;;;3.00;1.00;;;;;;5075275;28;20554;-57
2021/12/06 01:00:33;;;;;;;9.53;7.57;;;3.00;1.00;;;;;;5075322;28;20500;-57
2021/12/06 01:03:01;;;;;;;9.43;7.03;;;3.00;1.00;;;;;;5074852;28;20454;-58
2021/12/06 01:05:29;;;;;;;13.60;7.00;;;3.00;1.00;;;;;;5075070;28;20532;-59
2021/12/06 01:07:55;;;;;;;9.37;7.33;;;2.90;1.00;;;;;;5075303;28;20884;-58
2021/12/06 01:10:24;;;;;;;9.50;6.63;;;2.90;1.00;;;;;;5075059;28;20509;-59
2021/12/06 01:12:51;;;;;;;9.83;6.93;;;2.90;1.00;;;;;;5075031;28;20500;-59
2021/12/06 01:15:18;;;;;;;10.60;7.27;;;2.80;1.00;;;;;;5075090;28;20497;-58
2021/12/06 01:17:45;;;;;;;11.07;7.20;;;2.80;1.00;;;;;;5074932;28;20995;-55
2021/12/06 01:20:17;;;;;;;13.67;8.23;;;2.80;1.00;;;;;;5075196;28;20443;-58
2021/12/06 01:22:50;;;;;;;10.27;7.87;;;2.70;1.00;;;;;;5074550;28;20509;-59
2021/12/06 01:25:28;;;;;;;8.00;6.73;;;2.60;1.00;;;;;;5074909;28;20505;-58
2021/12/06 01:30:53;;;;;;;8.13;6.43;;;2.60;1.00;;;;;;5074806;28;20427;-58
2021/12/06 01:33:41;;;;;;;15.73;10.50;;;2.60;1.00;;;;;;5074257;28;20475;-59
2021/12/06 01:39:17;;;;;;;12.93;9.03;;;2.40;1.00;;;;;;5074599;28;20520;-60
2021/12/06 01:41:49;;;;;;;11.77;9.40;;;2.40;1.00;;;;;;5074651;28;20451;-58
2021/12/06 01:44:18;;;;;;;11.97;8.60;;;2.40;1.00;;;;;;5074595;28;20477;-58
2021/12/06 01:46:47;;;;;;;11.33;8.30;;;2.30;1.00;;;;;;5074363;28;20939;-59
2021/12/06 01:49:15;;;;;;;13.33;8.47;;;2.30;1.00;;;;;;5074469;28;20444;-58
2021/12/06 01:51:43;;;;;;;8.63;6.87;;;2.30;1.00;;;;;;5074073;28;20452;-58
2021/12/06 01:54:12;;;;;;;30.43;16.83;;;2.20;1.00;;;;;;5074145;28;20513;-59
2021/12/06 01:56:39;;;;;;;19.07;13.00;;;2.20;1.00;;;;;;5074523;28;20450;-59
2021/12/06 01:59:06;;;;;;;17.67;12.10;;;2.10;1.00;;;;;;5073913;28;20900;-58
2021/12/06 02:01:33;;;;;;;15.97;10.40;;;2.10;1.00;;;;;;5074107;28;20450;-58
2021/12/06 02:04:01;;;;;;;16.93;10.53;;;2.10;1.00;;;;;;5074333;28;20479;-58
2021/12/06 02:06:28;;;;;;;15.43;10.80;;;2.20;1.00;;;;;;5073852;28;20802;-58
2021/12/06 02:08:56;;;;;;;16.53;10.70;;;2.20;1.00;;;;;;5073948;28;20447;-58
2021/12/06 02:11:26;;;;;;;14.90;10.07;;;2.20;1.00;;;;;;5073783;28;20869;-59
2021/12/06 02:14:00;;;;;;;12.87;10.33;;;2.20;1.00;;;;;;5074266;28;20474;-58
2021/12/06 02:16:36;;;;;;;13.87;10.17;;;2.10;1.00;;;;;;5073741;28;20540;-57
2021/12/06 02:19:05;;;;;;;14.47;10.30;;;2.00;1.00;;;;;;5073725;28;20489;-59
2021/12/06 02:21:36;;;;;;;14.17;10.13;;;2.00;1.00;;;;;;5073157;28;20455;-58
2021/12/06 02:24:08;;;;;;;14.27;10.70;;;2.10;1.00;;;;;;5073457;28;20650;-58
2021/12/06 02:26:35;;;;;;;16.20;10.70;;;2.00;1.00;;;;;;5073703;28;20451;-56
2021/12/06 02:29:02;;;;;;;20.20;11.27;;;2.00;1.00;;;;;;5073442;28;20500;-58
2021/12/06 02:31:29;;;;;;;13.50;9.93;;;2.00;1.00;;;;;;5073129;28;20459;-60
2021/12/06 02:33:55;;;;;;;16.77;10.63;;;1.90;1.00;;;;;;5073396;28;20541;-59
2021/12/06 02:36:23;;;;;;;14.17;9.87;;;1.90;1.00;;;;;;5073621;28;20449;-59
2021/12/06 02:38:51;;;;;;;14.73;10.00;;;1.90;1.00;;;;;;5073277;28;20508;-59
2021/12/06 02:41:19;;;;;;;16.77;9.50;;;1.80;1.00;;;;;;5073133;28;20454;-59
2021/12/06 02:43:47;;;;;;;13.77;10.10;;;1.80;1.00;;;;;;5073096;28;20473;-59
2021/12/06 02:46:14;;;;;;;14.40;9.27;;;1.70;1.00;;;;;;5073029;28;20456;-58
2021/12/06 02:48:41;;;;;;;16.60;10.57;;;1.70;1.00;;;;;;5073404;28;20504;-59
2021/12/06 02:51:10;;;;;;;14.87;10.57;;;1.60;1.00;;;;;;5072709;28;20509;-59
2021/12/06 02:53:38;;;;;;;21.42;17.70;;;1.70;1.00;;;;;;5071855;28;20485;-58
2021/12/06 02:56:18;;;;;;;22.70;18.20;;;1.70;1.00;;;;;;5071626;28;20971;-59
2021/12/06 02:58:56;;;;;;;22.63;17.67;;;1.80;1.00;;;;;;5071604;28;20431;-59
2021/12/06 03:01:35;;;;;;;20.23;15.82;;;1.80;1.00;;;;;;5071322;28;20415;-59
2021/12/06 03:04:03;;;;;;;17.83;11.90;;;1.90;1.00;;;;;;5072765;28;20232;-59
2021/12/06 03:06:30;;;;;;;16.57;11.67;;;1.90;1.00;;;;;;5072711;28;20862;-58
2021/12/06 03:09:04;;;;;;;15.37;11.17;;;1.90;1.00;;;;;;5072700;28;20857;-59
2021/12/06 03:11:35;;;;;;;15.30;10.50;;;1.80;1.00;;;;;;5071502;28;20440;-58
2021/12/06 03:14:01;;;;;;;17.77;11.47;;;1.80;1.00;;;;;;5072836;28;20473;-59
2021/12/06 03:16:28;;;;;;;17.10;10.97;;;1.70;1.00;;;;;;5072876;28;20510;-58
2021/12/06 03:18:56;;;;;;;16.97;12.33;;;1.50;1.00;;;;;;5072667;28;20833;-58
2021/12/06 03:21:25;;;;;;;20.33;12.27;;;1.40;1.00;;;;;;5072306;28;20454;-58
2021/12/06 03:23:54;;;;;;;17.40;12.37;;;1.40;1.00;;;;;;5072037;28;20468;-59
2021/12/06 03:26:21;;;;;;;17.70;12.67;;;1.40;4.70;;;;;;5072502;28;20452;-58
2021/12/06 03:28:49;;;;;;;18.37;12.00;;;1.40;11.30;;;;;;5072470;28;20445;-58
2021/12/06 03:31:17;;;;;;;18.50;12.30;;;1.40;16.40;;;;;;5071978;28;20866;-57
2021/12/06 03:33:46;;;;;;;15.67;11.47;;;1.30;20.80;;;;;;5072010;28;21045;-57
2021/12/06 03:36:15;;;;;;;16.97;12.40;;;1.30;25.30;;;;;;5072097;28;20453;-57
2021/12/06 03:38:43;;;;;;;17.20;11.07;;;1.20;26.20;;;;;;5072233;28;20500;-58
2021/12/06 03:41:11;;;;;;;14.47;10.57;;;1.20;28.90;;;;;;5072200;28;20457;-58
2021/12/06 03:43:41;;;;;;;15.83;12.37;;;1.10;45.10;;;;;;5072006;28;20845;-58
2021/12/06 03:46:10;;;;;;;18.00;11.63;;;1.10;29.70;;;;;;5072083;28;20496;-57
2021/12/06 03:48:37;;;;;;;16.03;11.47;;;1.10;28.20;;;;;;5072053;28;20453;-58
2021/12/06 03:51:04;;;;;;;16.07;10.90;;;1.10;27.40;;;;;;5071720;28;20461;-59
2021/12/06 03:53:31;;;;;;;16.93;11.30;;;1.00;28.00;;;;;;5071797;28;20472;-58
2021/12/06 03:55:58;;;;;;;18.97;11.90;;;1.00;28.00;;;;;;5071903;28;20498;-56
2021/12/06 03:58:25;;;;;;;16.33;11.47;;;1.00;29.60;;;;;;5071923;28;20485;-57
2021/12/06 04:00:52;;;;;;;17.93;11.73;;;0.90;31.40;;;;;;5071822;28;20447;-57
2021/12/06 04:03:22;;;;;;;18.70;11.37;;;0.80;32.00;;;;;;5071254;28;21011;-57
2021/12/06 04:05:49;;;;;;;19.60;11.13;;;0.80;32.20;;;;;;5072089;28;20493;-57
2021/12/06 04:08:16;;;;;;;19.07;11.87;;;0.80;28.20;;;;;;5071834;28;20439;-59
2021/12/06 04:10:43;;;;;;;18.70;12.27;;;0.80;29.50;;;;;;5071839;28;20444;-58
2021/12/06 04:13:10;;;;;;;17.07;11.40;;;0.80;28.30;;;;;;5071297;28;20551;-58
2021/12/06 04:15:38;;;;;;;16.67;11.63;;;0.90;24.90;;;;;;5071549;28;20855;-59
2021/12/06 04:18:05;;;;;;;15.40;10.97;;;0.80;26.50;;;;;;5071420;28;20483;-55
2021/12/06 04:20:33;;;;;;;15.17;11.00;;;0.90;37.30;;;;;;5071895;28;20999;-58
2021/12/06 04:23:00;;;;;;;15.80;11.40;;;0.80;24.20;;;;;;5070816;28;20452;-59
2021/12/06 04:25:27;;;;;;;16.93;11.20;;;0.80;23.80;;;;;;5071716;28;20505;-59
2021/12/06 04:27:56;;;;;;;15.77;11.20;;;0.80;22.20;;;;;;5071581;28;20992;-58
2021/12/06 04:30:24;;;;;;;36.57;11.17;;;0.80;20.60;;;;;;5071573;28;20505;-58
2021/12/06 04:32:52;;;;;;;34.77;11.67;;;0.70;18.30;;;;;;5071301;28;20538;-56
2021/12/06 04:35:19;;;;;;;34.37;12.20;;;0.60;20.80;;;;;;5071579;28;20448;-58
2021/12/06 04:37:47;;;;;;;179.20;20.13;;;0.60;25.00;;;;;;5071600;28;20451;-58
2021/12/06 04:40:14;;;;;;;16.03;10.60;;;0.60;33.70;;;;;;5071133;28;20987;-58
2021/12/06 04:42:42;;;;;;;18.33;12.10;;;0.50;42.60;;;;;;5071129;28;20525;-59
2021/12/06 04:45:11;;;;;;;17.53;12.40;;;0.60;49.60;;;;;;5071226;28;20880;-59
2021/12/06 04:47:38;;;;;;;17.13;11.30;;;0.60;50.60;;;;;;5071512;28;20501;-58
2021/12/06 04:50:07;;;;;;;16.63;10.87;;;0.60;50.70;;;;;;5071369;28;20489;-59
2021/12/06 04:52:35;;;;;;;18.23;10.97;;;0.70;46.60;;;;;;5070939;28;20457;-59
2021/12/06 04:55:10;;;;;;;18.47;11.50;;;0.60;44.60;;;;;;5071555;28;20526;-58
2021/12/06 04:57:41;;;;;;;16.37;11.23;;;0.60;44.80;;;;;;5071370;28;20899;-58
2021/12/06 05:00:17;;;;;;;13.97;9.83;;;0.60;45.60;;;;;;5054115;28;20483;-59
2021/12/06 05:02:45;;;;;;;16.50;11.53;;;0.60;46.80;;;;;;5070951;28;20839;-58
2021/12/06 05:05:17;;;;;;;16.60;11.17;;;0.60;47.00;;;;;;5071046;28;20464;-59
2021/12/06 05:07:50;;;;;;;16.33;10.53;;;0.60;60.20;;;;;;5071021;28;20863;-59
2021/12/06 05:10:19;;;;;;;15.83;10.70;;;0.50;45.20;;;;;;5071363;28;20452;-58
2021/12/06 05:12:47;;;;;;;26.48;19.25;;;0.30;45.40;;;;;;5069703;28;20411;-59
2021/12/06 05:15:14;;;;;;;25.75;19.15;;;0.40;48.10;;;;;;5070046;28;20461;-59
2021/12/06 05:17:44;;;;;;;25.55;18.30;;;0.50;44.80;;;;;;5069829;28;20415;-59
2021/12/06 05:20:13;;;;;;;20.88;16.55;;;0.70;30.00;;;;;;5069656;28;20424;-58
2021/12/06 05:22:41;;;;;;;21.70;15.90;;;0.90;11.60;;;;;;5071142;28;20415;-59
2021/12/06 05:25:09;;;;;;;23.92;15.57;;;1.00;1.00;;;;;;5054617;28;20409;-58
2021/12/06 05:27:37;;;;;;;33.67;18.10;;;1.00;1.00;;;;;;5052298;28;20428;-59
2021/12/06 05:30:07;;;;;;;28.77;17.33;;;1.10;1.00;;;;;;5051590;28;20440;-59
2021/12/06 05:32:35;;;;;;;52.92;18.77;;;1.10;1.00;;;;;;5051200;28;20410;-59
2021/12/06 05:35:06;;;;;;;132.67;26.83;;;1.10;1.00;;;;;;5043190;28;20884;-59
2021/12/06 05:37:34;;;;;;;61.43;22.40;;;1.20;1.00;;;;;;5052611;28;20509;-58
2021/12/06 05:40:01;;;;;;;297.98;33.60;;;1.20;1.00;;;;;;5052731;28;20440;-56
2021/12/06 05:42:28;;;;;;;250.30;31.65;;;1.20;1.00;;;;;;5052218;28;20640;-58
2021/12/06 05:44:56;;;;;;;200.40;27.40;;;1.20;1.00;;;;;;5052443;28;20417;-58
2021/12/06 05:47:23;;;;;;;149.57;24.15;;;1.30;1.00;;;;;;5051424;28;20487;-58
2021/12/06 05:49:49;;;;;;;144.98;23.98;;;1.30;1.00;;;;;;5057584;28;20420;-58
2021/12/06 05:52:16;;;;;;;88.22;21.15;;;1.40;1.00;;;;;;5064628;28;20491;-57
2021/12/06 05:54:43;;;;;;;33.80;18.30;;;1.20;1.00;;;;;;5071184;28;20415;-59
2021/12/06 05:57:11;;;;;;;39.95;18.55;;;1.30;1.00;;;;;;5073205;28;20469;-59
2021/12/06 05:59:39;;;;;;;32.10;20.70;;;1.30;1.00;;;;;;5072818;28;20432;-57
2021/12/06 06:02:10;;;;;;;39.30;22.33;;;1.10;1.00;;;;;;5073068;28;20457;-61
2021/12/06 06:04:36;;;;;;;33.22;21.73;;;1.00;1.00;;;;;;5073162;28;20415;-59
2021/12/06 06:07:04;;;;;;;33.47;20.63;;;1.00;1.00;;;;;;5072625;28;20481;-60
2021/12/06 06:09:31;;;;;;;34.10;21.80;;;1.00;1.00;;;;;;5072411;28;20485;-60
2021/12/06 06:11:57;;;;;;;36.70;22.23;;;0.90;1.00;;;;;;5072372;28;20415;-60
2021/12/06 06:14:24;;;;;;;34.72;21.67;;;0.90;1.00;;;;;;5063001;28;20447;-61
2021/12/06 06:16:53;;;;;;;37.95;23.65;;;0.90;1.00;;;;;;5052539;28;20828;-60
2021/12/06 06:19:24;;;;;;;47.53;27.02;;;0.90;1.00;;;;;;5043800;28;20782;-59
2021/12/06 06:21:52;;;;;;;44.17;24.75;;;0.70;1.00;;;;;;5056094;28;20426;-60
2021/12/06 06:24:18;;;;;;;34.00;22.80;;;0.80;1.00;;;;;;5051485;28;20418;-56
2021/12/06 06:26:45;;;;;;;33.88;21.73;;;0.90;1.00;;;;;;5051704;28;20429;-58
2021/12/06 06:29:14;;;;;;;30.10;20.75;;;1.00;1.00;;;;;;5054733;28;20471;-58
2021/12/06 06:31:41;;;;;;;33.17;22.25;;;1.00;1.00;;;;;;5051492;28;20417;-58
2021/12/06 06:34:08;;;;;;;32.47;22.17;;;1.00;1.00;;;;;;5051729;28;20837;-58
2021/12/06 06:36:36;;;;;;;27.40;20.25;;;1.00;1.00;;;;;;5051770;28;20421;-61
2021/12/06 06:39:04;;;;;;;29.67;21.45;;;1.10;1.00;;;;;;5051388;28;20499;-58
2021/12/06 06:41:31;;;;;;;33.37;22.03;;;1.20;1.00;;;;;;5051358;28;20417;-59
2021/12/06 06:43:58;;;;;;;35.53;24.57;;;1.20;1.00;;;;;;5051144;28;20766;-59
2021/12/06 06:46:24;;;;;;;40.33;27.38;;;1.20;1.00;;;;;;5051437;28;20488;-58
2021/12/06 06:48:51;;;;;;;47.17;29.43;;;1.00;1.00;;;;;;5063993;28;20415;-58
2021/12/06 06:51:18;;;;;;;46.42;28.75;;;1.00;1.00;;;;;;5071270;28;20502;-59
2021/12/06 06:53:46;;;;;;;34.33;23.80;;;1.00;1.00;;;;;;5071299;28;20447;-58
2021/12/06 06:56:12;;;;;;;36.33;24.80;;;1.00;1.00;;;;;;5071287;28;20529;-58
2021/12/06 06:58:39;;;;;;;42.20;27.27;;;1.10;1.00;;;;;;5071140;28;20476;-59
2021/12/06 07:01:06;;;;;;;47.20;29.30;;;1.00;1.00;;;;;;5070939;28;20477;-60
2021/12/06 07:03:33;;;;;;;43.47;27.58;;;0.90;1.00;;;;;;5070986;28;20408;-58
2021/12/06 07:05:59;;;;;;;38.30;26.42;;;0.90;1.00;;;;;;5071176;28;20419;-56
2021/12/06 07:08:27;;;;;;;37.92;25.30;;;1.10;1.00;;;;;;5071043;28;20473;-61
2021/12/06 07:10:56;;;;;;;36.83;25.08;;;1.10;1.00;;;;;;5070777;28;20413;-59
2021/12/06 07:13:26;;;;;;;36.30;25.70;;;1.10;1.00;;;;;;5070926;28;20419;-61
2021/12/06 07:15:53;;;;;;;41.90;28.92;;;1.10;1.00;;;;;;5070870;28;20514;-58
2021/12/06 07:18:21;;;;;;;52.30;33.75;;;1.00;1.00;;;;;;5052243;28;20950;-59
2021/12/06 07:20:47;;;;;;;59.50;38.05;;;0.90;1.00;;;;;;5050120;28;20891;-58
2021/12/06 07:23:14;;;;;;;55.17;36.90;;;0.90;1.00;;;;;;5049974;28;20898;-58
2021/12/06 07:25:41;;;;;;;52.13;34.50;;;1.00;1.00;;;;;;5050448;28;20417;-58
2021/12/06 07:28:09;;;;;;;51.00;33.13;;;1.10;1.00;;;;;;5051046;28;20429;-59
2021/12/06 07:30:36;;;;;;;48.88;30.52;;;1.20;1.00;;;;;;5049971;28;20470;-59
2021/12/06 07:33:02;;;;;;;54.65;31.52;;;1.00;1.00;;;;;;5050283;28;20421;-57
2021/12/06 07:35:29;;;;;;;46.72;29.73;;;0.60;1.00;;;;;;5050575;28;20417;-58
2021/12/06 07:37:56;;;;;;;56.53;32.75;;;0.40;1.00;;;;;;5050426;28;20425;-59
2021/12/06 07:40:23;;;;;;;60.85;35.95;;;0.20;1.00;;;;;;5050072;28;20426;-59
2021/12/06 07:42:50;;;;;;;69.22;37.80;;;0.10;1.00;;;;;;5049945;28;20912;-57
2021/12/06 07:45:19;;;;;;;62.72;34.60;;;0.00;1.00;;;;;;5050727;28;20479;-57
2021/12/06 07:47:46;;;;;;;55.77;30.20;;;0.00;1.00;;;;;;5050464;28;20482;-59
2021/12/06 07:50:17;;;;;;;96.93;37.88;;;0.10;1.00;;;;;;5050144;28;20416;-58
2021/12/06 07:52:44;;;;;;;175.25;36.63;;;-0.20;1.00;;;;;;5049771;28;20475;-58
2021/12/06 07:55:16;;;;;;;318.77;47.33;;;-0.40;1.00;;;;;;5050462;28;20463;-58
2021/12/06 07:57:42;;;;;;;264.85;44.38;;;-0.30;8.10;;;;;;5049898;28;20440;-58
2021/12/06 08:00:16;;;;;;;156.40;36.23;;;-0.30;12.80;;;;;;5049969;28;20514;-58
2021/12/06 08:02:44;;;;;;;147.90;39.10;;;-0.20;32.10;;;;;;5068204;28;20420;-59
2021/12/06 08:05:31;;;;;;;255.35;46.22;;;-0.40;41.40;;;;;;5069759;28;20419;-59
2021/12/06 08:07:58;;;;;;;144.17;41.07;;;-0.40;65.30;;;;;;5070242;28;20418;-58
2021/12/06 08:10:25;;;;;;;119.20;34.70;;;-0.20;86.40;;;;;;5070081;28;20465;-59
2021/12/06 08:12:52;;;;;;;276.20;45.05;;;-0.20;92.20;;;;;;5069833;28;20509;-59
2021/12/06 08:15:19;;;;;;;210.77;42.75;;;-0.40;93.70;;;;;;5069773;28;20473;-57
2021/12/06 08:17:47;;;;;;;246.05;41.97;;;-0.50;98.70;;;;;;5070422;28;20422;-58
2021/12/06 08:20:14;;;;;;;179.43;40.80;;;-0.40;99.90;;;;;;5069816;28;20423;-54
2021/12/06 08:22:41;;;;;;;146.77;38.45;;;-0.50;99.90;;;;;;5070123;28;20502;-56
2021/12/06 08:25:10;;;;;;;336.23;49.45;;;-0.40;99.90;;;;;;5144114;22;20829;-59
2021/12/06 08:27:39;;;;;;;258.25;46.22;;;-0.40;99.90;;;;;;5049984;28;20410;-58
2021/12/06 08:30:07;;;;;;;216.73;44.53;;;-0.40;99.90;;;;;;5049711;28;20793;-58
2021/12/06 08:32:34;;;;;;;182.00;41.70;;;-0.30;99.90;;;;;;5049709;28;20897;-58
2021/12/06 08:35:04;;;;;;;184.48;41.35;;;-0.20;99.90;;;;;;5049781;28;20824;-57
2021/12/06 08:37:30;;;;;;;151.63;37.00;;;0.00;99.90;;;;;;5049792;28;20401;-59
2021/12/06 08:39:57;;;;;;;191.50;39.30;;;0.10;99.90;;;;;;5049505;28;20475;-59
2021/12/06 08:42:24;;;;;;;293.08;46.75;;;0.10;99.90;;;;;;5049620;28;20417;-59
2021/12/06 08:44:51;;;;;;;268.23;45.28;;;0.10;99.90;;;;;;5047999;28;20421;-58
2021/12/06 08:47:18;;;;;;;86.37;34.67;;;0.00;99.90;;;;;;5049618;28;20421;-61
2021/12/06 08:49:45;;;;;;;91.57;32.50;;;0.20;99.90;;;;;;5049423;28;20435;-60
2021/12/06 08:52:14;;;;;;;56.10;26.92;;;0.50;99.90;;;;;;5049621;28;20413;-60
2021/12/06 08:54:42;;;;;;;43.80;24.27;;;0.80;99.90;;;;;;5049668;28;20417;-60
2021/12/06 08:57:09;;;;;;;39.78;22.80;;;1.00;99.90;;;;;;5049488;28;21157;-60
2021/12/06 08:59:35;;;;;;;32.92;21.10;;;1.20;99.90;;;;;;5049610;28;20453;-59
2021/12/06 09:02:03;;;;;;;29.65;20.63;;;1.30;99.90;;;;;;5049305;28;20420;-59
2021/12/06 09:04:34;;;;;;;40.88;21.70;;;1.50;99.90;;;;;;5049734;28;20470;-59
2021/12/06 09:07:01;;;;;;;57.20;26.30;;;1.40;99.90;;;;;;5049486;28;20417;-60
2021/12/06 09:09:30;;;;;;;43.20;25.85;;;1.20;99.90;;;;;;5040248;28;20478;-62
2021/12/06 09:11:57;;;;;;;82.22;30.02;;;1.30;99.90;;;;;;5033384;28;20448;-58
2021/12/06 09:14:24;;;;;;;104.05;29.77;;;1.30;99.90;;;;;;5029817;28;20425;-58
2021/12/06 09:16:51;;;;;;;44.08;25.67;;;1.30;99.90;;;;;;5036078;28;21304;-59
2021/12/06 09:19:19;;;;;;;35.97;22.50;;;1.40;99.90;;;;;;5033421;28;20422;-59
2021/12/06 09:21:46;;;;;;;32.33;21.80;;;1.70;99.90;;;;;;5032771;28;20411;-59
2021/12/06 09:24:19;;;;;;;31.00;21.63;;;1.90;99.90;;;;;;5032411;28;20427;-59
2021/12/06 09:26:48;;;;;;;33.60;22.38;;;2.00;99.90;;;;;;5033355;28;20465;-59
2021/12/06 09:29:15;;;;;;;40.07;26.40;;;1.90;99.90;;;;;;5033121;28;20419;-58
2021/12/06 09:31:42;;;;;;;44.45;27.40;;;1.70;99.90;;;;;;5032758;28;20418;-59
2021/12/06 09:34:09;;;;;;;45.67;28.33;;;1.60;99.90;;;;;;5032716;28;20421;-58
2021/12/06 09:36:36;;;;;;;49.72;28.33;;;1.50;99.90;;;;;;5032861;28;20950;-59
2021/12/06 09:39:05;;;;;;;40.50;28.10;;;1.50;99.90;;;;;;5033059;28;20423;-58
2021/12/06 09:41:33;;;;;;;36.90;25.63;;;1.70;99.90;;;;;;5032429;28;20427;-58
2021/12/06 09:44:05;;;;;;;34.67;24.33;;;1.90;99.90;;;;;;5032718;28;20426;-54
2021/12/06 09:46:36;;;;;;;39.35;26.77;;;1.90;59.60;;;;;;5033037;28;20415;-59
2021/12/06 09:49:04;;;;;;;46.85;29.55;;;1.70;50.60;;;;;;5037488;28;20421;-59
2021/12/06 09:51:31;;;;;;;50.95;31.40;;;1.60;62.90;;;;;;5052147;28;20424;-59
2021/12/06 09:53:59;;;;;;;57.72;32.15;;;1.60;78.30;;;;;;5076797;22;20911;-59
2021/12/06 09:56:28;;;;;;;48.22;31.73;;;1.70;92.90;;;;;;5072798;28;20810;-58
2021/12/06 09:58:56;;;;;;;52.63;33.30;;;1.80;96.50;;;;;;5072264;28;20442;-59
2021/12/06 10:01:28;;;;;;;52.80;31.88;;;1.80;99.90;;;;;;5071860;28;20427;-59
2021/12/06 10:03:58;;;;;;;54.67;33.00;;;2.00;99.90;;;;;;5071860;28;20442;-59
2021/12/06 10:06:26;;;;;;;48.67;30.92;;;2.10;99.90;;;;;;5072551;28;20467;-59
2021/12/06 10:08:55;;;;;;;41.40;28.75;;;2.30;99.90;;;;;;5072245;28;20411;-59
2021/12/06 10:11:24;;;;;;;39.55;27.95;;;2.40;99.90;;;;;;5071859;28;20465;-59
2021/12/06 10:13:52;;;;;;;40.42;27.65;;;2.60;99.90;;;;;;5072179;28;20494;-60
2021/12/06 10:16:20;;;;;;;38.40;27.88;;;2.60;99.90;;;;;;5071710;28;20422;-59
2021/12/06 10:18:48;;;;;;;32.60;24.40;;;2.70;99.90;;;;;;5072518;28;20439;-55
2021/12/06 10:21:16;;;;;;;28.50;21.85;;;2.90;52.60;;;;;;5071271;28;20492;-59
2021/12/06 10:23:43;;;;;;;25.20;21.23;;;3.10;1.00;;;;;;5059879;28;20963;-59
2021/12/06 10:26:14;;;;;;;30.98;20.45;;;3.20;1.00;;;;;;5052155;28;20417;-59
2021/12/06 10:28:43;;;;;;;42.78;22.38;;;3.20;1.00;;;;;;5061794;28;20491;-56
2021/12/06 10:31:12;;;;;;;43.65;24.15;;;3.00;1.00;;;;;;5057287;28;20498;-63
2021/12/06 10:33:46;;;;;;;40.17;25.60;;;2.80;1.00;;;;;;5051530;28;20890;-58
2021/12/06 10:36:16;;;;;;;39.03;26.95;;;2.70;1.00;;;;;;5051759;28;20416;-58
2021/12/06 10:38:47;;;;;;;39.87;26.97;;;2.60;1.00;;;;;;5051667;28;20417;-57
2021/12/06 10:41:16;;;;;;;41.42;27.35;;;2.60;1.00;;;;;;5050789;28;20499;-58
2021/12/06 10:43:51;;;;;;;40.25;27.13;;;2.70;1.00;;;;;;5051565;28;20425;-59
2021/12/06 10:46:18;;;;;;;39.80;28.35;;;2.70;1.00;;;;;;5062811;28;20431;-59
2021/12/06 10:48:46;;;;;;;42.25;29.65;;;2.80;2.80;;;;;;5063029;28;20414;-57
2021/12/06 10:51:17;;;;;;;34.70;26.20;;;2.90;45.00;;;;;;5051067;28;20413;-59
2021/12/06 10:53:47;;;;;;;30.65;21.38;;;3.10;73.10;;;;;;5050920;28;20420;-58
2021/12/06 10:56:20;;;;;;;28.80;20.07;;;3.20;63.20;;;;;;5051788;28;20863;-60
2021/12/06 10:58:50;;;;;;;25.85;18.10;;;3.40;54.80;;;;;;5051669;28;20517;-57
2021/12/06 11:01:20;;;;;;;23.77;17.88;;;3.70;23.40;;;;;;5051061;28;20429;-56
2021/12/06 11:03:49;;;;;;;18.33;15.15;;;3.90;1.00;;;;;;5051011;28;20421;-59
2021/12/06 11:06:20;;;;;;;18.23;15.10;;;4.00;1.00;;;;;;5051011;28;20421;-59
2021/12/06 11:08:48;;;;;;;18.80;14.80;;;4.00;1.00;;;;;;5051384;28;20933;-59
2021/12/06 11:11:19;;;;;;;19.90;14.35;;;4.10;1.00;;;;;;5051055;28;20463;-55
2021/12/06 11:13:48;;;;;;;18.83;14.05;;;4.10;1.00;;;;;;5064709;28;20418;-53
2021/12/06 11:16:17;;;;;;;19.55;14.45;;;4.20;1.00;;;;;;5071013;28;20419;-57
2021/12/06 11:18:51;;;;;;;20.30;14.30;;;4.40;1.00;;;;;;5070767;28;20420;-59
2021/12/06 11:21:29;;;;;;;19.33;14.68;;;4.30;1.00;;;;;;5070717;28;20428;-59
2021/12/06 11:24:05;;;;;;;18.27;14.40;;;4.30;1.00;;;;;;5070483;28;20411;-59
2021/12/06 11:26:33;;;;;;;17.27;13.25;;;4.40;1.00;;;;;;5070979;28;20826;-55
2021/12/06 11:29:08;;;;;;;17.83;13.80;;;4.50;1.00;;;;;;5070747;28;20526;-56
2021/12/06 11:31:35;;;;;;;18.13;14.10;;;4.60;1.00;;;;;;5070092;28;20903;-59
2021/12/06 11:34:04;;;;;;;20.98;13.68;;;4.50;1.00;;;;;;5070011;28;20416;-56
2021/12/06 11:36:33;;;;;;;20.85;14.93;;;4.40;1.00;;;;;;5070699;28;20430;-59
2021/12/06 11:39:02;;;;;;;23.90;16.02;;;4.50;1.00;;;;;;5070688;28;20423;-58
2021/12/06 11:41:29;;;;;;;19.67;14.15;;;4.60;1.00;;;;;;5070015;28;20442;-56
2021/12/06 11:43:57;;;;;;;18.33;13.30;;;4.80;1.00;;;;;;5070461;28;20416;-55
2021/12/06 11:46:29;;;;;;;18.45;13.85;;;4.80;1.00;;;;;;5070620;28;20816;-53
2021/12/06 11:48:56;;;;;;;16.83;12.40;;;4.80;1.00;;;;;;5070646;28;20481;-57
2021/12/06 11:51:25;;;;;;;18.38;13.32;;;4.90;1.00;;;;;;5070316;28;20415;-55
2021/12/06 11:53:56;;;;;;;18.42;12.95;;;5.10;1.00;;;;;;5070660;28;20415;-57
2021/12/06 11:56:25;;;;;;;15.75;11.65;;;5.50;1.00;;;;;;5052590;28;20572;-59
2021/12/06 11:58:54;;;;;;;16.67;12.20;;;5.70;1.00;;;;;;5049980;28;20417;-61
2021/12/06 12:01:25;;;;;;;15.82;12.48;;;5.80;1.00;;;;;;5050228;28;20429;-57
2021/12/06 12:03:55;;;;;;;16.35;11.55;;;5.80;1.00;;;;;;5050058;28;20489;-60
2021/12/06 12:06:28;;;;;;;14.68;10.60;;;5.80;1.00;;;;;;5050102;28;20435;-56
2021/12/06 12:09:06;;;;;;;15.57;10.88;;;5.90;1.00;;;;;;5049836;28;20406;-65
2021/12/06 12:11:32;;;;;;;14.93;11.30;;;5.90;1.00;;;;;;5050026;28;20409;-63
2021/12/06 12:14:10;;;;;;;14.73;11.27;;;6.10;1.00;;;;;;5049853;28;20417;-56
2021/12/06 12:16:37;;;;;;;15.88;11.25;;;6.10;1.00;;;;;;5049941;28;20882;-56
2021/12/06 12:19:04;;;;;;;15.53;11.73;;;6.10;1.00;;;;;;5054735;28;20424;-60
2021/12/06 12:21:31;;;;;;;15.43;11.35;;;5.90;1.00;;;;;;5069792;28;20431;-59
2021/12/06 12:23:59;;;;;;;15.37;11.47;;;5.70;1.00;;;;;;5069810;28;20434;-54
2021/12/06 12:26:27;;;;;;;18.67;11.88;;;5.80;1.00;;;;;;5070419;28;20458;-56
2021/12/06 12:29:00;;;;;;;18.98;12.52;;;5.80;1.00;;;;;;5069933;28;20434;-56
2021/12/06 12:31:28;;;;;;;17.60;12.75;;;5.70;1.00;;;;;;5055610;28;20483;-58
2021/12/06 12:33:56;;;;;;;14.88;11.63;;;5.70;1.00;;;;;;5049258;28;20504;-56
2021/12/06 12:36:24;;;;;;;15.63;11.52;;;5.90;1.00;;;;;;5050154;28;20429;-61
2021/12/06 12:38:54;;;;;;;15.75;11.95;;;5.90;1.00;;;;;;5049931;28;20504;-56
2021/12/06 12:41:23;;;;;;;16.15;12.18;;;5.80;1.00;;;;;;5049325;28;20425;-58
2021/12/06 12:43:54;;;;;;;16.35;12.52;;;5.70;1.00;;;;;;5050401;28;20943;-62
2021/12/06 12:46:23;;;;;;;17.58;13.20;;;5.70;1.00;;;;;;5053426;28;20417;-61
2021/12/06 12:48:54;;;;;;;18.13;12.75;;;5.50;1.00;;;;;;5053808;28;20425;-58
2021/12/06 12:51:23;;;;;;;20.10;13.63;;;5.30;1.00;;;;;;5053321;28;20409;-57
2021/12/06 12:54:04;;;;;;;18.73;13.55;;;5.40;1.00;;;;;;5053190;28;20822;-58
2021/12/06 12:56:34;;;;;;;19.55;14.00;;;5.30;1.00;;;;;;5053880;28;20417;-56